Time;durP1;ratioP1;P1;durP2;ratioP2;P2;SDS_P1;SDS_P2;PMS_P1;PMS_P2;Temp;Humidity;BMP_temperature;BMP_pressure;BME280_temperature;BME280_humidity;BME280_pressure;Samples;Min_cycle;Max_cycle;Signal;HPM_P1;HPM_P2
2021/07/09 00:01:24;;;;;;;4.63;1.93;;;;;;;;;;10549780;28;20713;-75
2021/07/09 00:06:26;;;;;;;4.57;2.00;;;;;;;;;;10547836;28;20207;-76
2021/07/09 00:11:29;;;;;;;3.80;1.90;;;;;;;;;;10546011;28;20293;-76
2021/07/09 00:16:32;;;;;;;3.97;2.00;;;;;;;;;;10507147;28;20604;-75
2021/07/09 00:21:36;;;;;;;3.87;2.07;;;;;;;;;;10553787;28;20827;-74
2021/07/09 00:26:38;;;;;;;3.77;1.70;;;;;;;;;;10535399;28;20282;-76
2021/07/09 00:31:42;;;;;;;2.87;1.60;;;;;;;;;;10541500;28;20306;-75
2021/07/09 00:36:45;;;;;;;2.20;1.43;;;;;;;;;;10534820;28;20241;-77
2021/07/09 00:41:47;;;;;;;1.07;0.63;;;;;;;;;;10531523;28;20243;-76
2021/07/09 00:46:51;;;;;;;0.83;0.67;;;;;;;;;;10548165;28;20239;-76
2021/07/09 00:51:54;;;;;;;2.67;1.53;;;;;;;;;;10545897;28;20219;-76
2021/07/09 00:56:57;;;;;;;3.10;1.40;;;;;;;;;;10543946;28;20233;-77
2021/07/09 01:02:01;;;;;;;3.80;1.70;;;;;;;;;;10544584;28;20244;-78
2021/07/09 01:07:04;;;;;;;2.90;1.50;;;;;;;;;;10553054;28;20272;-77
2021/07/09 01:12:08;;;;;;;3.53;1.80;;;;;;;;;;10529398;28;20215;-77
2021/07/09 01:17:13;;;;;;;3.50;1.60;;;;;;;;;;10545401;28;20209;-77
2021/07/09 01:22:16;;;;;;;3.33;1.47;;;;;;;;;;10549589;28;20222;-76
2021/07/09 01:27:20;;;;;;;3.83;1.60;;;;;;;;;;10548378;28;20200;-75
2021/07/09 01:32:22;;;;;;;3.33;1.80;;;;;;;;;;10548083;28;20223;-76
2021/07/09 01:37:25;;;;;;;3.27;1.60;;;;;;;;;;10525021;28;20262;-76
2021/07/09 01:42:28;;;;;;;1.67;1.07;;;;;;;;;;10554705;28;20703;-76
2021/07/09 01:47:31;;;;;;;4.73;1.70;;;;;;;;;;10537294;28;20222;-76
2021/07/09 01:52:34;;;;;;;3.47;1.50;;;;;;;;;;10549617;28;20207;-77
2021/07/09 01:57:38;;;;;;;2.37;1.10;;;;;;;;;;10542283;28;20274;-76
2021/07/09 02:02:41;;;;;;;2.07;1.20;;;;;;;;;;10545775;28;20207;-77
2021/07/09 02:07:44;;;;;;;2.87;1.20;;;;;;;;;;10537532;28;20198;-76
2021/07/09 02:12:50;;;;;;;1.30;1.10;;;;;;;;;;10528250;28;20208;-76
2021/07/09 02:17:52;;;;;;;1.07;0.77;;;;;;;;;;10537056;28;20679;-77
2021/07/09 02:22:56;;;;;;;2.27;1.30;;;;;;;;;;10528854;28;20276;-77
2021/07/09 02:28:00;;;;;;;1.33;0.87;;;;;;;;;;10546568;28;21928;-76
2021/07/09 02:33:03;;;;;;;0.80;0.73;;;;;;;;;;10540082;28;20215;-78
2021/07/09 02:38:06;;;;;;;0.43;0.40;;;;;;;;;;10543464;28;20211;-77
2021/07/09 02:43:10;;;;;;;1.17;0.33;;;;;;;;;;10552460;28;20238;-77
2021/07/09 02:48:12;;;;;;;1.07;0.50;;;;;;;;;;10553854;28;20191;-76
2021/07/09 02:53:15;;;;;;;0.30;0.30;;;;;;;;;;10518488;28;20279;-75
2021/07/09 02:58:19;;;;;;;1.80;0.40;;;;;;;;;;10548050;28;20279;-76
2021/07/09 03:03:21;;;;;;;1.00;0.40;;;;;;;;;;10566241;28;20561;-76
2021/07/09 03:08:24;;;;;;;0.27;0.27;;;;;;;;;;10554098;28;20675;-77
2021/07/09 03:13:28;;;;;;;1.53;0.50;;;;;;;;;;10557539;28;20207;-77
2021/07/09 03:18:31;;;;;;;0.53;0.50;;;;;;;;;;10542683;28;20207;-79
2021/07/09 03:23:33;;;;;;;0.70;0.30;;;;;;;;;;10565286;28;20213;-78
2021/07/09 03:28:37;;;;;;;0.30;0.30;;;;;;;;;;10550093;28;20272;-78
2021/07/09 03:34:03;;;;;;;0.40;0.40;;;;;;;;;;10554297;28;20215;-80
2021/07/09 03:39:11;;;;;;;0.93;0.47;;;;;;;;;;10537357;28;20223;-78
2021/07/09 03:44:18;;;;;;;1.13;0.40;;;;;;;;;;10549886;28;20215;-78
2021/07/09 03:49:21;;;;;;;1.77;0.30;;;;;;;;;;10566106;28;20214;-76
2021/07/09 03:54:24;;;;;;;1.00;0.50;;;;;;;;;;10546695;28;20194;-78
2021/07/09 03:59:28;;;;;;;0.40;0.40;;;;;;;;;;10528967;28;20292;-78
2021/07/09 04:04:30;;;;;;;0.97;0.60;;;;;;;;;;10548022;28;20669;-77
2021/07/09 04:09:33;;;;;;;1.00;0.60;;;;;;;;;;10557886;28;20207;-79
2021/07/09 04:14:37;;;;;;;0.73;0.60;;;;;;;;;;10540757;28;20613;-79
2021/07/09 04:19:59;;;;;;;1.20;0.80;;;;;;;;;;10549316;28;20250;-77
2021/07/09 04:25:22;;;;;;;0.80;0.60;;;;;;;;;;10542144;28;20222;-78
2021/07/09 04:30:45;;;;;;;0.60;0.60;;;;;;;;;;10550910;28;20226;-76
2021/07/09 04:36:08;;;;;;;1.00;0.70;;;;;;;;;;10549816;28;20627;-76
2021/07/09 04:41:10;;;;;;;1.60;0.67;;;;;;;;;;10548555;28;20211;-77
2021/07/09 04:46:35;;;;;;;1.70;0.93;;;;;;;;;;10538853;28;20226;-77
2021/07/09 04:51:37;;;;;;;1.77;0.80;;;;;;;;;;10546053;28;20264;-79
2021/07/09 04:57:00;;;;;;;1.37;1.07;;;;;;;;;;10543228;28;20294;-76
2021/07/09 05:02:24;;;;;;;1.70;1.10;;;;;;;;;;10550445;28;20230;-77
2021/07/09 05:07:47;;;;;;;2.37;1.40;;;;;;;;;;10545005;28;20646;-77
2021/07/09 05:13:11;;;;;;;1.30;1.10;;;;;;;;;;10549411;28;20211;-78
2021/07/09 05:18:35;;;;;;;2.57;1.50;;;;;;;;;;10536417;28;20577;-78
2021/07/09 05:23:59;;;;;;;3.77;1.50;;;;;;;;;;10546535;28;20210;-78
2021/07/09 05:29:22;;;;;;;2.30;1.10;;;;;;;;;;10546089;28;20262;-79
2021/07/09 05:34:45;;;;;;;4.00;1.67;;;;;;;;;;10560402;28;20199;-79
2021/07/09 05:40:07;;;;;;;3.03;1.37;;;;;;;;;;10556084;28;20238;-78
2021/07/09 05:45:35;;;;;;;3.20;1.60;;;;;;;;;;10546786;28;20591;-80
2021/07/09 05:50:41;;;;;;;3.20;1.70;;;;;;;;;;10554539;28;20223;-79
2021/07/09 05:55:46;;;;;;;1.97;1.30;;;;;;;;;;10551532;28;20187;-78
2021/07/09 06:00:49;;;;;;;0.97;0.90;;;;;;;;;;10553937;28;20288;-78
2021/07/09 06:05:53;;;;;;;1.13;0.80;;;;;;;;;;10554413;28;20711;-80
2021/07/09 06:10:55;;;;;;;2.17;1.10;;;;;;;;;;10554439;28;20211;-79
2021/07/09 06:15:58;;;;;;;2.17;1.40;;;;;;;;;;10555542;28;20237;-78
2021/07/09 06:21:02;;;;;;;0.93;0.87;;;;;;;;;;10526335;28;20583;-79
2021/07/09 06:26:04;;;;;;;2.43;1.00;;;;;;;;;;10565963;28;20880;-79
2021/07/09 06:31:07;;;;;;;2.37;1.37;;;;;;;;;;10560294;28;20207;-80
2021/07/09 06:36:11;;;;;;;2.77;1.40;;;;;;;;;;10565652;28;20184;-80
2021/07/09 06:41:18;;;;;;;2.10;1.33;;;;;;;;;;10551653;28;20214;-79
2021/07/09 06:46:21;;;;;;;3.13;1.40;;;;;;;;;;10559602;28;20206;-80
2021/07/09 06:51:25;;;;;;;3.23;1.40;;;;;;;;;;10545337;28;20269;-78
2021/07/09 06:56:31;;;;;;;2.30;1.40;;;;;;;;;;10563251;28;20196;-80
2021/07/09 07:01:33;;;;;;;2.63;1.60;;;;;;;;;;10564895;28;20843;-79
2021/07/09 07:06:37;;;;;;;2.73;1.70;;;;;;;;;;10560769;28;20206;-80
2021/07/09 07:11:40;;;;;;;4.37;2.00;;;;;;;;;;10555073;28;20298;-80
2021/07/09 07:16:42;;;;;;;3.23;1.90;;;;;;;;;;10550168;28;20204;-77
2021/07/09 07:21:46;;;;;;;4.53;1.80;;;;;;;;;;10546331;28;20301;-79
2021/07/09 07:26:49;;;;;;;4.83;2.37;;;;;;;;;;10557190;28;20262;-80
2021/07/09 07:31:52;;;;;;;4.97;2.47;;;;;;;;;;10568542;28;20265;-79
2021/07/09 07:36:56;;;;;;;5.57;2.63;;;;;;;;;;10592114;28;20622;-80
2021/07/09 07:41:58;;;;;;;5.07;2.40;;;;;;;;;;10558722;28;20647;-76
2021/07/09 07:47:01;;;;;;;5.87;2.27;;;;;;;;;;10554697;28;20207;-76
2021/07/09 07:52:05;;;;;;;4.50;2.40;;;;;;;;;;10558758;28;20343;-75
2021/07/09 07:57:08;;;;;;;2.90;1.80;;;;;;;;;;10557410;28;20216;-76
2021/07/09 08:02:10;;;;;;;6.33;2.50;;;;;;;;;;10561436;28;20267;-75
2021/07/09 08:07:14;;;;;;;9.43;3.90;;;;;;;;;;10561038;28;20199;-75
2021/07/09 08:12:17;;;;;;;6.83;3.10;;;;;;;;;;10561989;28;20286;-75
2021/07/09 08:17:20;;;;;;;6.30;2.73;;;;;;;;;;10563835;28;20573;-77
2021/07/09 08:22:23;;;;;;;8.07;3.37;;;;;;;;;;10559980;28;20243;-76
2021/07/09 08:27:26;;;;;;;3.73;2.00;;;;;;;;;;10565050;28;20218;-77
2021/07/09 08:32:28;;;;;;;3.60;2.13;;;;;;;;;;10556724;28;20313;-78
2021/07/09 08:37:33;;;;;;;5.03;2.10;;;;;;;;;;10534099;28;20227;-77
2021/07/09 08:42:36;;;;;;;4.30;2.10;;;;;;;;;;10576064;27;20714;-77
2021/07/09 08:47:39;;;;;;;3.73;2.00;;;;;;;;;;10545307;28;20530;-77
2021/07/09 08:52:43;;;;;;;3.43;2.10;;;;;;;;;;10562872;28;20233;-75
2021/07/09 08:57:46;;;;;;;2.80;1.50;;;;;;;;;;10546662;28;20266;-77
2021/07/09 09:02:52;;;;;;;4.07;2.10;;;;;;;;;;10566537;28;20215;-75
2021/07/09 09:07:58;;;;;;;1.77;1.33;;;;;;;;;;10564155;28;20673;-75
2021/07/09 09:13:05;;;;;;;3.73;2.00;;;;;;;;;;10558292;28;20211;-75
2021/07/09 09:18:21;;;;;;;3.87;2.00;;;;;;;;;;10565276;28;20203;-76
2021/07/09 09:23:25;;;;;;;0.70;0.70;;;;;;;;;;10531996;28;20710;-74
2021/07/09 09:28:29;;;;;;;3.90;2.00;;;;;;;;;;10546174;28;20739;-75
2021/07/09 09:33:33;;;;;;;3.50;1.60;;;;;;;;;;10564683;28;20211;-75
2021/07/09 09:38:37;;;;;;;8.67;2.00;;;;;;;;;;10552597;28;20210;-75
2021/07/09 09:43:40;;;;;;;1.43;1.07;;;;;;;;;;10549501;28;20298;-75
2021/07/09 09:48:44;;;;;;;4.00;1.50;;;;;;;;;;10556501;28;20299;-77
2021/07/09 09:53:51;;;;;;;8.83;2.33;;;;;;;;;;10555470;28;20235;-76
2021/07/09 09:59:11;;;;;;;3.77;1.50;;;;;;;;;;10549319;28;20265;-76
2021/07/09 10:04:14;;;;;;;3.43;1.83;;;;;;;;;;10538790;28;20190;-76
2021/07/09 10:09:19;;;;;;;3.53;2.00;;;;;;;;;;10536167;28;20235;-76
2021/07/09 10:14:22;;;;;;;3.40;2.07;;;;;;;;;;10559590;28;20244;-76
2021/07/09 10:19:37;;;;;;;3.37;1.83;;;;;;;;;;10532492;28;20210;-76
2021/07/09 10:24:58;;;;;;;3.70;2.20;;;;;;;;;;10556218;28;20324;-75
2021/07/09 10:30:03;;;;;;;4.80;2.60;;;;;;;;;;10557187;28;20237;-75
2021/07/09 10:35:07;;;;;;;3.00;1.77;;;;;;;;;;10547070;28;20183;-76
2021/07/09 10:40:12;;;;;;;2.93;1.90;;;;;;;;;;10559992;28;20241;-76
2021/07/09 10:45:20;;;;;;;5.13;2.53;;;;;;;;;;10546244;28;20192;-76
2021/07/09 10:50:41;;;;;;;5.80;3.20;;;;;;;;;;10547357;28;20295;-76
2021/07/09 10:55:49;;;;;;;5.73;3.07;;;;;;;;;;10554892;28;20257;-76
2021/07/09 11:00:54;;;;;;;6.80;3.83;;;;;;;;;;10562514;28;20211;-75
2021/07/09 11:05:58;;;;;;;7.43;3.90;;;;;;;;;;10550013;28;20222;-75
2021/07/09 11:11:08;;;;;;;8.97;4.33;;;;;;;;;;10564547;28;20199;-76
2021/07/09 11:16:27;;;;;;;8.17;5.07;;;;;;;;;;10534186;28;20985;-76
2021/07/09 11:21:59;;;;;;;8.63;5.00;;;;;;;;;;10553851;28;20211;-76
2021/07/09 11:27:09;;;;;;;8.90;4.10;;;;;;;;;;10456724;28;20752;-76
2021/07/09 11:32:17;;;;;;;6.03;3.50;;;;;;;;;;10558583;28;20231;-77
2021/07/09 11:37:20;;;;;;;6.10;3.60;;;;;;;;;;10560635;28;20658;-76
2021/07/09 11:42:24;;;;;;;5.77;2.77;;;;;;;;;;10566881;28;20545;-76
2021/07/09 11:47:28;;;;;;;8.13;3.60;;;;;;;;;;10542464;28;20237;-76
2021/07/09 11:52:31;;;;;;;7.33;3.63;;;;;;;;;;10560654;28;20213;-76
2021/07/09 11:57:37;;;;;;;6.97;3.97;;;;;;;;;;10554187;28;20198;-76
2021/07/09 12:02:43;;;;;;;6.77;4.00;;;;;;;;;;10540766;28;20589;-75
2021/07/09 12:07:46;;;;;;;9.00;4.23;;;;;;;;;;10558147;28;20280;-76
2021/07/09 12:12:51;;;;;;;7.50;4.10;;;;;;;;;;10566408;28;20230;-76
2021/07/09 12:17:56;;;;;;;6.67;3.80;;;;;;;;;;10546371;28;20195;-75
2021/07/09 12:23:00;;;;;;;5.93;3.73;;;;;;;;;;10533100;28;20929;-76
2021/07/09 12:28:05;;;;;;;6.63;3.67;;;;;;;;;;10552625;28;20200;-75
2021/07/09 12:33:07;;;;;;;7.37;4.23;;;;;;;;;;10553828;28;20317;-75
2021/07/09 12:38:24;;;;;;;5.83;3.40;;;;;;;;;;10548050;28;20311;-76
2021/07/09 12:43:29;;;;;;;5.03;3.00;;;;;;;;;;10525002;28;20245;-75
2021/07/09 12:48:35;;;;;;;6.80;3.55;;;;;;;;;;10551425;28;20226;-74
2021/07/09 12:53:38;;;;;;;6.60;3.03;;;;;;;;;;10539734;28;20737;-74
2021/07/09 12:58:42;;;;;;;7.63;3.80;;;;;;;;;;10552629;28;20188;-73
2021/07/09 13:03:45;;;;;;;6.60;3.75;;;;;;;;;;10561734;28;20654;-74
2021/07/09 13:08:48;;;;;;;4.78;2.75;;;;;;;;;;10545464;28;20204;-73
2021/07/09 13:13:53;;;;;;;6.38;2.63;;;;;;;;;;10551817;28;20202;-72
2021/07/09 13:18:56;;;;;;;4.78;2.70;;;;;;;;;;10550719;28;20734;-72
2021/07/09 13:24:07;;;;;;;4.53;2.85;;;;;;;;;;10558150;28;20733;-72
2021/07/09 13:29:19;;;;;;;6.00;3.47;;;;;;;;;;10558656;28;20211;-73
2021/07/09 13:34:22;;;;;;;5.65;3.40;;;;;;;;;;10532387;28;20191;-72
2021/07/09 13:39:24;;;;;;;5.40;2.92;;;;;;;;;;10536925;28;20809;-73
2021/07/09 13:44:28;;;;;;;6.05;3.13;;;;;;;;;;10551095;28;20218;-73
2021/07/09 13:49:31;;;;;;;6.83;3.00;;;;;;;;;;10550774;28;20589;-73
2021/07/09 13:54:33;;;;;;;6.17;3.33;;;;;;;;;;10531375;28;20199;-73
2021/07/09 13:59:37;;;;;;;6.33;3.27;;;;;;;;;;10555380;28;20711;-74
2021/07/09 14:04:40;;;;;;;4.87;2.90;;;;;;;;;;10554596;28;20206;-73
2021/07/09 14:09:42;;;;;;;4.67;2.50;;;;;;;;;;10537985;28;20219;-73
2021/07/09 14:14:46;;;;;;;4.57;2.40;;;;;;;;;;10527211;28;20210;-72
2021/07/09 14:19:49;;;;;;;4.17;2.30;;;;;;;;;;10543149;28;20753;-72
2021/07/09 14:24:51;;;;;;;4.70;2.60;;;;;;;;;;10534689;28;20195;-73
2021/07/09 14:29:55;;;;;;;5.27;2.60;;;;;;;;;;10554823;28;20670;-72
2021/07/09 14:34:58;;;;;;;5.30;2.70;;;;;;;;;;10553874;28;20222;-73
2021/07/09 14:40:00;;;;;;;4.93;2.80;;;;;;;;;;10557409;28;20234;-73
2021/07/09 14:45:05;;;;;;;4.00;2.30;;;;;;;;;;10557180;28;20192;-72
2021/07/09 14:50:09;;;;;;;5.30;2.63;;;;;;;;;;10540689;28;20310;-72
2021/07/09 14:55:12;;;;;;;5.63;3.10;;;;;;;;;;10525394;28;20211;-72
2021/07/09 15:00:20;;;;;;;5.33;2.97;;;;;;;;;;10555766;28;20246;-73
2021/07/09 15:05:23;;;;;;;4.37;2.57;;;;;;;;;;10556382;28;20271;-73
2021/07/09 15:10:25;;;;;;;4.73;2.70;;;;;;;;;;10561281;28;20302;-73
2021/07/09 15:15:29;;;;;;;4.23;2.60;;;;;;;;;;10553406;28;20227;-73
2021/07/09 15:20:32;;;;;;;6.30;3.13;;;;;;;;;;10541249;28;20203;-73
2021/07/09 15:25:34;;;;;;;5.80;3.20;;;;;;;;;;10530319;28;20211;-73
2021/07/09 15:30:41;;;;;;;4.50;2.70;;;;;;;;;;10552792;28;20225;-73
2021/07/09 15:35:45;;;;;;;3.95;2.13;;;;;;;;;;10564181;28;20646;-73
2021/07/09 15:40:48;;;;;;;5.70;2.60;;;;;;;;;;10534256;28;20208;-74
2021/07/09 15:45:51;;;;;;;4.32;2.33;;;;;;;;;;10563413;28;20270;-72
2021/07/09 15:50:54;;;;;;;3.33;1.87;;;;;;;;;;10554575;28;20247;-73
2021/07/09 15:55:57;;;;;;;2.93;1.97;;;;;;;;;;10555856;28;20747;-74
2021/07/09 16:01:01;;;;;;;3.73;2.10;;;;;;;;;;10562345;28;20681;-74
2021/07/09 16:06:03;;;;;;;4.37;2.33;;;;;;;;;;10552800;28;20207;-72
2021/07/09 16:11:06;;;;;;;3.47;1.87;;;;;;;;;;10547602;28;20743;-72
2021/07/09 16:16:11;;;;;;;4.27;2.00;;;;;;;;;;10541461;28;20199;-73
2021/07/09 16:21:22;;;;;;;2.73;1.80;;;;;;;;;;10553386;28;20202;-74
2021/07/09 16:26:25;;;;;;;2.37;1.60;;;;;;;;;;10564887;28;20228;-72
2021/07/09 16:31:34;;;;;;;3.87;1.90;;;;;;;;;;10541153;28;20641;-75
2021/07/09 16:36:37;;;;;;;3.60;2.17;;;;;;;;;;10556751;28;20191;-73
2021/07/09 16:41:40;;;;;;;2.37;1.60;;;;;;;;;;10551290;28;20204;-71
2021/07/09 16:46:43;;;;;;;3.53;2.23;;;;;;;;;;10550905;28;20223;-74
2021/07/09 16:51:46;;;;;;;2.80;1.80;;;;;;;;;;10553096;28;20459;-74
2021/07/09 16:56:49;;;;;;;3.33;2.10;;;;;;;;;;10549744;28;20222;-74
2021/07/09 17:01:52;;;;;;;3.53;2.20;;;;;;;;;;10550232;28;20212;-75
2021/07/09 17:06:55;;;;;;;3.73;2.10;;;;;;;;;;10549682;28;20192;-72
2021/07/09 17:11:58;;;;;;;3.83;2.37;;;;;;;;;;10546390;28;20232;-74
2021/07/09 17:17:03;;;;;;;8.33;4.20;;;;;;;;;;10545575;28;20246;-74
2021/07/09 17:22:08;;;;;;;3.80;2.23;;;;;;;;;;10560769;28;20219;-73
2021/07/09 17:27:10;;;;;;;11.37;6.83;;;;;;;;;;10547076;28;20576;-73
2021/07/09 17:32:14;;;;;;;7.63;3.43;;;;;;;;;;10552244;28;20222;-74
2021/07/09 17:37:21;;;;;;;4.73;2.60;;;;;;;;;;10545265;28;20198;-73
2021/07/09 17:42:24;;;;;;;6.67;3.03;;;;;;;;;;10554309;28;20552;-74
2021/07/09 17:47:28;;;;;;;5.07;2.47;;;;;;;;;;10549782;28;20191;-74
2021/07/09 17:52:33;;;;;;;4.47;2.50;;;;;;;;;;10560928;28;20233;-74
2021/07/09 17:57:36;;;;;;;7.03;3.50;;;;;;;;;;10538734;28;20214;-74
2021/07/09 18:02:40;;;;;;;4.77;2.40;;;;;;;;;;10545421;28;20293;-72
2021/07/09 18:07:43;;;;;;;5.80;2.80;;;;;;;;;;10550535;28;20286;-74
2021/07/09 18:12:45;;;;;;;8.50;4.57;;;;;;;;;;10537548;28;20281;-74
2021/07/09 18:17:50;;;;;;;5.63;3.00;;;;;;;;;;10545990;28;20647;-73
2021/07/09 18:23:04;;;;;;;8.87;4.53;;;;;;;;;;10528084;28;20218;-73
2021/07/09 18:28:07;;;;;;;7.73;4.33;;;;;;;;;;10555769;28;20253;-73
2021/07/09 18:33:11;;;;;;;9.83;5.23;;;;;;;;;;10552734;28;20262;-75
2021/07/09 18:38:13;;;;;;;8.07;4.70;;;;;;;;;;10547012;28;23094;-74
2021/07/09 18:43:16;;;;;;;9.40;5.33;;;;;;;;;;10548131;28;20218;-74
2021/07/09 18:48:20;;;;;;;6.50;3.60;;;;;;;;;;10550212;28;20289;-74
2021/07/09 18:53:22;;;;;;;8.00;5.00;;;;;;;;;;10551478;28;20581;-73
2021/07/09 18:58:25;;;;;;;6.67;3.90;;;;;;;;;;10550050;28;20179;-73
2021/07/09 19:03:29;;;;;;;9.33;4.07;;;;;;;;;;10550727;28;20286;-73
2021/07/09 19:08:34;;;;;;;12.50;7.57;;;;;;;;;;10542943;28;20207;-73
2021/07/09 19:13:37;;;;;;;12.37;6.97;;;;;;;;;;10547216;28;20664;-73
2021/07/09 19:18:41;;;;;;;9.30;5.43;;;;;;;;;;10548890;28;20226;-71
2021/07/09 19:23:44;;;;;;;7.70;4.50;;;;;;;;;;10542534;28;20279;-73
2021/07/09 19:28:46;;;;;;;14.97;9.53;;;;;;;;;;10549487;28;20674;-73
2021/07/09 19:33:50;;;;;;;16.40;10.53;;;;;;;;;;10557270;28;20211;-73
2021/07/09 19:38:53;;;;;;;17.30;10.07;;;;;;;;;;10557089;28;20180;-73
2021/07/09 19:43:55;;;;;;;14.87;8.10;;;;;;;;;;10556782;28;20207;-73
2021/07/09 19:48:59;;;;;;;14.63;10.10;;;;;;;;;;10563164;28;20229;-72
2021/07/09 19:54:02;;;;;;;11.17;6.40;;;;;;;;;;10555659;28;20238;-73
2021/07/09 19:59:05;;;;;;;9.93;4.90;;;;;;;;;;10551128;28;20237;-72
2021/07/09 20:04:09;;;;;;;17.97;11.77;;;;;;;;;;10552453;28;20199;-74
2021/07/09 20:09:11;;;;;;;10.17;5.80;;;;;;;;;;10550538;28;20226;-74
2021/07/09 20:14:14;;;;;;;8.83;5.33;;;;;;;;;;10558129;28;20225;-74
2021/07/09 20:19:18;;;;;;;15.30;10.63;;;;;;;;;;10553310;28;20188;-72
2021/07/09 20:24:20;;;;;;;8.73;5.83;;;;;;;;;;10548427;28;20217;-74
2021/07/09 20:29:23;;;;;;;12.20;7.07;;;;;;;;;;10547322;28;20284;-74
2021/07/09 20:34:26;;;;;;;9.90;6.23;;;;;;;;;;10554278;28;20655;-73
2021/07/09 20:39:29;;;;;;;9.97;6.70;;;;;;;;;;10550616;28;20262;-72
2021/07/09 20:44:32;;;;;;;14.00;8.50;;;;;;;;;;10553830;28;20665;-74
2021/07/09 20:49:46;;;;;;;16.80;12.77;;;;;;;;;;10548649;28;20813;-74
2021/07/09 20:54:48;;;;;;;26.47;21.03;;;;;;;;;;10548613;28;20200;-74
2021/07/09 20:59:51;;;;;;;20.07;14.17;;;;;;;;;;10543393;28;20538;-73
2021/07/09 21:04:55;;;;;;;15.60;10.23;;;;;;;;;;10563749;28;20186;-73
2021/07/09 21:09:57;;;;;;;22.70;15.63;;;;;;;;;;10551247;28;20341;-73
2021/07/09 21:15:00;;;;;;;16.30;11.17;;;;;;;;;;10562499;28;20195;-72
2021/07/09 21:20:04;;;;;;;15.40;10.80;;;;;;;;;;10556491;28;20220;-73
2021/07/09 21:25:08;;;;;;;27.53;18.97;;;;;;;;;;10555038;28;20199;-73
2021/07/09 21:30:11;;;;;;;21.93;16.40;;;;;;;;;;10531626;28;20302;-73
2021/07/09 21:35:15;;;;;;;21.30;14.93;;;;;;;;;;10550932;28;20194;-73
2021/07/09 21:40:18;;;;;;;24.73;17.17;;;;;;;;;;10555884;28;20297;-73
2021/07/09 21:45:20;;;;;;;36.60;26.73;;;;;;;;;;10556043;28;20252;-74
2021/07/09 21:50:24;;;;;;;20.08;17.40;;;;;;;;;;10533669;28;20751;-74
2021/07/09 21:55:27;;;;;;;51.67;38.87;;;;;;;;;;10550152;28;20698;-74
2021/07/09 22:00:30;;;;;;;30.13;22.80;;;;;;;;;;10534640;28;20274;-73
2021/07/09 22:05:34;;;;;;;24.43;16.17;;;;;;;;;;10550269;28;20271;-73
2021/07/09 22:10:36;;;;;;;26.77;16.93;;;;;;;;;;10548374;28;20219;-73
2021/07/09 22:15:43;;;;;;;27.13;19.17;;;;;;;;;;10545046;28;20260;-73
2021/07/09 22:21:08;;;;;;;28.43;19.10;;;;;;;;;;10544394;28;20207;-73
2021/07/09 22:26:12;;;;;;;31.03;19.57;;;;;;;;;;10546260;28;20596;-74
2021/07/09 22:31:15;;;;;;;30.90;19.07;;;;;;;;;;10546862;28;20223;-73
2021/07/09 22:36:20;;;;;;;24.50;17.27;;;;;;;;;;10557220;28;20214;-73
2021/07/09 22:41:23;;;;;;;26.93;18.77;;;;;;;;;;10557177;28;20211;-73
2021/07/09 22:46:25;;;;;;;25.83;17.83;;;;;;;;;;10558783;28;20203;-74
2021/07/09 22:51:29;;;;;;;30.57;19.37;;;;;;;;;;10536583;28;20218;-73
2021/07/09 22:56:32;;;;;;;25.87;17.47;;;;;;;;;;10548061;28;20195;-74
2021/07/09 23:01:34;;;;;;;27.63;17.40;;;;;;;;;;10553980;28;20218;-74
2021/07/09 23:06:38;;;;;;;31.70;19.40;;;;;;;;;;10563611;28;20194;-73
2021/07/09 23:11:41;;;;;;;29.97;19.73;;;;;;;;;;10552830;28;20245;-74
2021/07/09 23:16:43;;;;;;;30.77;20.13;;;;;;;;;;10565024;28;20226;-74
2021/07/09 23:21:47;;;;;;;31.83;20.73;;;;;;;;;;10554509;28;20199;-74
2021/07/09 23:26:50;;;;;;;26.60;17.50;;;;;;;;;;10549772;28;20677;-74
2021/07/09 23:31:53;;;;;;;26.90;16.87;;;;;;;;;;10548750;28;20694;-74
2021/07/09 23:36:57;;;;;;;25.87;16.63;;;;;;;;;;10551898;28;20592;-73
2021/07/09 23:42:00;;;;;;;24.13;14.90;;;;;;;;;;10542955;28;20218;-74
2021/07/09 23:47:02;;;;;;;25.47;17.13;;;;;;;;;;10546504;28;20274;-73
2021/07/09 23:52:07;;;;;;;24.50;15.90;;;;;;;;;;10562553;28;20218;-74
2021/07/09 23:57:09;;;;;;;28.47;17.23;;;;;;;;;;10545315;28;20635;-73
